Time,TemperatureF,DewpointF,PressureIn,WindDirection,WindDirectionDegrees,WindSpeedMPH,WindSpeedGustMPH,Humidity,HourlyPrecipIn,Conditions,Clouds,dailyrainin,SoftwareType,DateUTC
2013-07-04 00:00:00,73.1,72.2,30.20,North,355,0.0,0.0,97,0.00,,,0.00,Wunderground v.1.15,2013-07-04 04:00:00,
2013-07-04 00:04:00,73.1,72.2,30.20,North,355,0.0,0.0,97,0.00,,,0.00,Wunderground v.1.15,2013-07-04 04:04:00,
2013-07-04 00:09:00,73.0,72.1,30.20,North,355,0.0,0.0,97,0.00,,,0.00,Wunderground v.1.15,2013-07-04 04:09:00,
2013-07-04 00:15:00,72.9,72.0,30.20,North,355,0.0,0.0,97,0.00,,,0.00,Wunderground v.1.15,2013-07-04 04:15:00,
2013-07-04 00:24:00,72.8,71.9,30.20,North,355,0.0,0.0,97,0.00,,,0.00,Wunderground v.1.15,2013-07-04 04:24:00,
2013-07-04 00:30:00,72.7,71.8,30.20,North,355,0.0,0.0,97,0.00,,,0.00,Wunderground v.1.15,2013-07-04 04:30:00,
2013-07-04 00:39:00,72.6,71.7,30.20,North,355,0.0,0.0,97,0.00,,,0.01,Wunderground v.1.15,2013-07-04 04:39:00,
2013-07-04 00:45:00,72.6,71.7,30.20,North,355,0.0,0.0,97,0.00,,,0.01,Wunderground v.1.15,2013-07-04 04:45:00,
2013-07-04 00:54:00,72.4,71.5,30.20,North,355,0.0,0.0,97,0.00,,,0.01,Wunderground v.1.15,2013-07-04 04:54:00,
2013-07-04 01:00:00,72.4,71.5,30.20,North,355,0.0,0.0,97,0.00,,,0.01,Wunderground v.1.15,2013-07-04 05:00:00,
2013-07-04 01:09:00,72.2,71.3,30.20,North,355,0.0,0.0,97,0.00,,,0.01,Wunderground v.1.15,2013-07-04 05:09:00,
2013-07-04 01:15:00,72.2,71.3,30.20,North,355,0.0,0.0,97,0.00,,,0.01,Wunderground v.1.15,2013-07-04 05:15:00,
2013-07-04 01:24:00,72.1,71.2,30.20,North,355,0.0,0.0,97,0.00,,,0.01,Wunderground v.1.15,2013-07-04 05:24:00,
2013-07-04 01:30:00,72.1,71.2,30.20,North,355,0.0,0.0,97,0.00,,,0.01,Wunderground v.1.15,2013-07-04 05:30:00,
2013-07-04 01:39:00,72.0,71.1,30.20,North,355,0.0,0.0,97,0.00,,,0.01,Wunderground v.1.15,2013-07-04 05:39:00,
2013-07-04 01:45:00,72.0,71.4,30.20,North,355,0.0,0.0,98,0.00,,,0.01,Wunderground v.1.15,2013-07-04 05:45:00,
2013-07-04 01:54:00,72.1,71.5,30.20,North,355,0.0,0.0,98,0.00,,,0.01,Wunderground v.1.15,2013-07-04 05:54:00,
2013-07-04 02:00:00,72.1,71.5,30.20,North,355,0.0,0.0,98,0.00,,,0.01,Wunderground v.1.15,2013-07-04 06:00:00,
2013-07-04 02:09:00,72.1,71.5,30.20,North,355,0.0,0.0,98,0.00,,,0.01,Wunderground v.1.15,2013-07-04 06:09:00,
2013-07-04 02:15:00,72.2,71.6,30.20,North,355,0.0,0.0,98,0.00,,,0.01,Wunderground v.1.15,2013-07-04 06:15:00,
2013-07-04 02:24:00,72.1,71.5,30.20,North,355,0.0,0.0,98,0.00,,,0.01,Wunderground v.1.15,2013-07-04 06:24:00,
2013-07-04 02:30:00,72.2,71.6,30.20,North,355,0.0,0.0,98,0.00,,,0.01,Wunderground v.1.15,2013-07-04 06:30:00,
2013-07-04 02:39:00,72.2,71.6,30.20,North,355,0.0,0.0,98,0.00,,,0.01,Wunderground v.1.15,2013-07-04 06:39:00,
2013-07-04 02:45:00,72.2,71.6,30.20,North,355,0.0,0.0,98,0.00,,,0.01,Wunderground v.1.15,2013-07-04 06:45:00,
2013-07-04 02:54:00,72.1,71.5,30.19,North,355,0.0,0.0,98,0.00,,,0.01,Wunderground v.1.15,2013-07-04 06:54:00,
2013-07-04 03:00:00,72.1,71.5,30.19,North,355,0.0,0.0,98,0.00,,,0.01,Wunderground v.1.15,2013-07-04 07:00:00,
2013-07-04 03:09:00,72.1,71.5,30.19,North,355,0.0,0.0,98,0.00,,,0.01,Wunderground v.1.15,2013-07-04 07:09:00,
2013-07-04 03:15:00,72.1,71.5,30.19,North,355,0.0,0.0,98,0.00,,,0.01,Wunderground v.1.15,2013-07-04 07:15:00,
2013-07-04 03:24:00,72.1,71.5,30.19,North,355,0.0,0.0,98,0.00,,,0.01,Wunderground v.1.15,2013-07-04 07:24:00,
2013-07-04 03:30:00,72.1,71.5,30.19,North,355,0.0,0.0,98,0.00,,,0.01,Wunderground v.1.15,2013-07-04 07:30:00,
2013-07-04 03:35:00,72.1,71.5,30.19,North,355,0.0,0.0,98,0.00,,,0.01,Wunderground v.1.15,2013-07-04 07:35:00,
2013-07-04 03:40:00,72.1,71.5,30.19,North,355,0.0,0.0,98,0.00,,,0.01,Wunderground v.1.15,2013-07-04 07:40:00,
2013-07-04 03:46:00,72.1,71.5,30.19,North,355,0.0,0.0,98,0.00,,,0.01,Wunderground v.1.15,2013-07-04 07:46:00,
2013-07-04 03:55:00,72.1,71.5,30.19,North,355,0.0,0.0,98,0.00,,,0.01,Wunderground v.1.15,2013-07-04 07:55:00,
2013-07-04 04:01:00,72.1,71.5,30.19,North,355,0.0,0.0,98,0.00,,,0.01,Wunderground v.1.15,2013-07-04 08:01:00,
2013-07-04 04:10:00,72.2,71.6,30.19,North,355,0.0,0.0,98,0.00,,,0.01,Wunderground v.1.15,2013-07-04 08:10:00,
2013-07-04 04:16:00,72.2,71.6,30.19,North,355,0.0,0.0,98,0.00,,,0.01,Wunderground v.1.15,2013-07-04 08:16:00,
2013-07-04 04:25:00,72.1,71.5,30.19,North,355,0.0,0.0,98,0.00,,,0.01,Wunderground v.1.15,2013-07-04 08:25:00,
2013-07-04 04:31:00,72.2,71.6,30.19,North,355,0.0,0.0,98,0.00,,,0.01,Wunderground v.1.15,2013-07-04 08:31:00,
2013-07-04 04:40:00,72.1,71.5,30.19,North,355,0.0,0.0,98,0.00,,,0.01,Wunderground v.1.15,2013-07-04 08:40:00,
2013-07-04 04:46:00,72.1,71.5,30.19,North,355,0.0,0.0,98,0.00,,,0.01,Wunderground v.1.15,2013-07-04 08:46:00,
2013-07-04 04:55:00,72.1,71.5,30.19,North,355,0.0,0.0,98,0.00,,,0.01,Wunderground v.1.15,2013-07-04 08:55:00,
2013-07-04 05:01:00,72.1,71.5,30.19,North,355,0.0,0.0,98,0.00,,,0.01,Wunderground v.1.15,2013-07-04 09:01:00,
2013-07-04 05:10:00,72.0,71.4,30.19,North,355,0.0,0.0,98,0.00,,,0.01,Wunderground v.1.15,2013-07-04 09:10:00,
2013-07-04 05:16:00,71.9,71.3,30.20,North,355,0.0,0.0,98,0.00,,,0.01,Wunderground v.1.15,2013-07-04 09:16:00,
2013-07-04 05:25:00,71.8,71.2,30.20,North,355,0.0,0.0,98,0.00,,,0.01,Wunderground v.1.15,2013-07-04 09:25:00,
2013-07-04 05:31:00,71.8,71.2,30.20,North,355,0.0,0.0,98,0.00,,,0.01,Wunderground v.1.15,2013-07-04 09:31:00,
2013-07-04 05:40:00,71.6,71.0,30.20,North,355,0.0,0.0,98,0.00,,,0.01,Wunderground v.1.15,2013-07-04 09:40:00,
2013-07-04 05:46:00,71.6,71.0,30.21,North,355,0.0,0.0,98,0.00,,,0.01,Wunderground v.1.15,2013-07-04 09:46:00,
2013-07-04 05:55:00,71.5,70.9,30.21,North,355,0.0,0.0,98,0.00,,,0.01,Wunderground v.1.15,2013-07-04 09:55:00,
2013-07-04 06:01:00,71.5,70.9,30.21,North,355,0.0,0.0,98,0.00,,,0.01,Wunderground v.1.15,2013-07-04 10:01:00,
2013-07-04 06:10:00,71.6,71.0,30.21,North,355,0.0,0.0,98,0.00,,,0.01,Wunderground v.1.15,2013-07-04 10:10:00,
2013-07-04 06:16:00,71.6,71.0,30.21,North,355,0.0,0.0,98,0.00,,,0.01,Wunderground v.1.15,2013-07-04 10:16:00,
2013-07-04 06:25:00,71.7,71.4,30.22,North,355,0.0,0.0,99,0.00,,,0.01,Wunderground v.1.15,2013-07-04 10:25:00,
2013-07-04 06:31:00,71.9,71.6,30.22,North,355,0.0,0.0,99,0.00,,,0.01,Wunderground v.1.15,2013-07-04 10:31:00,
2013-07-04 06:40:00,72.0,71.7,30.22,North,355,0.0,0.0,99,0.00,,,0.01,Wunderground v.1.15,2013-07-04 10:40:00,
2013-07-04 06:46:00,72.1,71.5,30.22,North,355,0.0,0.0,98,0.00,,,0.01,Wunderground v.1.15,2013-07-04 10:46:00,
2013-07-04 06:55:00,72.4,72.1,30.22,North,355,0.0,0.0,99,0.00,,,0.01,Wunderground v.1.15,2013-07-04 10:55:00,
2013-07-04 07:01:00,72.5,72.2,30.22,North,355,0.0,0.0,99,0.00,,,0.01,Wunderground v.1.15,2013-07-04 11:01:00,
2013-07-04 07:10:00,73.0,72.7,30.22,North,355,0.0,0.0,99,0.00,,,0.01,Wunderground v.1.15,2013-07-04 11:10:00,
2013-07-04 07:16:00,73.2,72.9,30.22,North,355,0.0,0.0,99,0.00,,,0.01,Wunderground v.1.15,2013-07-04 11:16:00,
2013-07-04 07:25:00,73.5,73.2,30.22,North,355,0.0,0.0,99,0.00,,,0.01,Wunderground v.1.15,2013-07-04 11:25:00,
2013-07-04 07:31:00,73.7,73.4,30.22,North,355,0.0,0.0,99,0.00,,,0.01,Wunderground v.1.15,2013-07-04 11:31:00,
2013-07-04 07:40:00,74.2,73.9,30.22,NE,38,0.0,0.0,99,0.00,,,0.01,Wunderground v.1.15,2013-07-04 11:40:00,
2013-07-04 07:46:00,74.5,74.2,30.22,NE,38,0.0,0.0,99,0.00,,,0.01,Wunderground v.1.15,2013-07-04 11:46:00,
2013-07-04 07:55:00,74.8,74.5,30.22,NE,38,0.0,0.0,99,0.00,,,0.01,Wunderground v.1.15,2013-07-04 11:55:00,
2013-07-04 08:01:00,75.1,74.8,30.22,NE,38,0.0,1.0,99,0.00,,,0.01,Wunderground v.1.15,2013-07-04 12:01:00,
2013-07-04 08:10:00,75.3,74.4,30.22,North,5,0.0,1.0,97,0.00,,,0.01,Wunderground v.1.15,2013-07-04 12:10:00,
2013-07-04 08:16:00,75.4,74.5,30.23,SSW,211,0.0,1.0,97,0.00,,,0.01,Wunderground v.1.15,2013-07-04 12:16:00,
2013-07-04 08:25:00,75.8,74.6,30.23,SSE,155,0.0,0.0,96,0.00,,,0.01,Wunderground v.1.15,2013-07-04 12:25:00,
2013-07-04 08:31:00,76.0,74.8,30.23,SSE,155,0.0,0.0,96,0.00,,,0.01,Wunderground v.1.15,2013-07-04 12:31:00,
2013-07-04 08:40:00,76.3,74.8,30.23,SSE,157,0.0,0.0,95,0.00,,,0.01,Wunderground v.1.15,2013-07-04 12:40:00,
2013-07-04 08:46:00,76.4,74.9,30.23,SSE,157,0.0,0.0,95,0.00,,,0.01,Wunderground v.1.15,2013-07-04 12:46:00,
2013-07-04 08:55:00,76.5,74.6,30.23,WNW,302,0.0,1.0,94,0.00,,,0.01,Wunderground v.1.15,2013-07-04 12:55:00,
2013-07-04 09:01:00,76.7,74.8,30.23,SSE,148,0.0,0.0,94,0.00,,,0.01,Wunderground v.1.15,2013-07-04 13:01:00,
2013-07-04 09:10:00,77.3,75.1,30.24,SSE,148,0.0,0.0,93,0.00,,,0.01,Wunderground v.1.15,2013-07-04 13:10:00,
2013-07-04 09:16:00,77.3,74.8,30.23,NNE,17,0.0,0.0,92,0.00,,,0.01,Wunderground v.1.15,2013-07-04 13:16:00,
2013-07-04 09:25:00,77.6,74.8,30.23,North,5,0.0,0.0,91,0.00,,,0.01,Wunderground v.1.15,2013-07-04 13:25:00,
2013-07-04 09:30:00,77.7,74.5,30.23,NE,46,0.0,0.0,90,0.00,,,0.01,Wunderground v.1.15,2013-07-04 13:30:00,
2013-07-04 09:40:00,78.1,74.6,30.23,SE,140,0.0,1.0,89,0.00,,,0.01,Wunderground v.1.15,2013-07-04 13:40:00,
2013-07-04 09:46:00,78.2,74.7,30.23,ENE,78,0.0,2.0,89,0.00,,,0.01,Wunderground v.1.15,2013-07-04 13:46:00,
2013-07-04 09:55:00,78.6,75.1,30.23,ENE,78,0.0,1.0,89,0.00,,,0.01,Wunderground v.1.15,2013-07-04 13:55:00,
2013-07-04 10:00:00,78.9,74.7,30.23,ENE,78,0.0,0.0,87,0.00,,,0.01,Wunderground v.1.15,2013-07-04 14:00:00,
2013-07-04 10:10:00,79.8,74.9,30.23,NNW,343,0.0,0.0,85,0.00,,,0.01,Wunderground v.1.15,2013-07-04 14:10:00,
2013-07-04 10:16:00,80.4,75.1,30.22,North,360,1.0,1.0,84,0.00,,,0.01,Wunderground v.1.15,2013-07-04 14:16:00,
2013-07-04 10:25:00,81.4,75.7,30.22,NNE,23,0.0,1.0,83,0.00,,,0.01,Wunderground v.1.15,2013-07-04 14:25:00,
2013-07-04 10:31:00,81.7,75.3,30.22,West,279,1.0,1.0,81,0.00,,,0.01,Wunderground v.1.15,2013-07-04 14:31:00,
2013-07-04 10:40:00,81.6,74.8,30.22,NW,317,0.0,0.0,80,0.00,,,0.01,Wunderground v.1.15,2013-07-04 14:40:00,
2013-07-04 10:45:00,81.8,75.4,30.22,SW,229,0.0,0.0,81,0.00,,,0.01,Wunderground v.1.15,2013-07-04 14:45:00,
2013-07-04 10:55:00,81.5,74.4,30.22,SW,225,1.0,1.0,79,0.00,,,0.01,Wunderground v.1.15,2013-07-04 14:55:00,
2013-07-04 11:00:00,81.4,73.9,30.22,WNW,300,1.0,1.0,78,0.00,,,0.01,Wunderground v.1.15,2013-07-04 15:00:00,
2013-07-04 11:10:00,81.0,74.2,30.22,West,277,1.0,1.0,80,0.00,,,0.01,Wunderground v.1.15,2013-07-04 15:10:00,
2013-07-04 11:15:00,81.4,75.0,30.22,NNW,338,1.0,1.0,81,0.00,,,0.01,Wunderground v.1.15,2013-07-04 15:15:00,
2013-07-04 11:25:00,82.5,74.9,30.21,SSW,205,1.0,2.0,78,0.00,,,0.01,Wunderground v.1.15,2013-07-04 15:25:00,
2013-07-04 11:30:00,83.1,74.7,30.21,West,278,1.0,1.0,76,0.00,,,0.01,Wunderground v.1.15,2013-07-04 15:30:00,
2013-07-04 11:40:00,84.3,75.5,30.21,SSW,196,1.0,1.0,75,0.00,,,0.01,Wunderground v.1.15,2013-07-04 15:40:00,
2013-07-04 11:45:00,85.1,75.5,30.21,WSW,253,1.0,1.0,73,0.00,,,0.01,Wunderground v.1.15,2013-07-04 15:45:00,
2013-07-04 11:55:00,85.2,75.6,30.21,WSW,249,1.0,1.0,73,0.00,,,0.01,Wunderground v.1.15,2013-07-04 15:55:00,
2013-07-04 12:00:00,85.0,75.4,30.21,West,277,0.0,1.0,73,0.00,,,0.01,Wunderground v.1.15,2013-07-04 16:00:00,
2013-07-04 12:10:00,84.8,75.6,30.21,ENE,70,0.0,0.0,74,0.00,,,0.01,Wunderground v.1.15,2013-07-04 16:10:00,
2013-07-04 12:15:00,85.2,76.0,30.21,ENE,70,0.0,0.0,74,0.00,,,0.01,Wunderground v.1.15,2013-07-04 16:15:00,
2013-07-04 12:25:00,85.8,75.7,30.20,North,355,0.0,0.0,72,0.00,,,0.01,Wunderground v.1.15,2013-07-04 16:25:00,
2013-07-04 12:30:00,85.9,75.4,30.20,WSW,252,0.0,0.0,71,0.00,,,0.01,Wunderground v.1.15,2013-07-04 16:30:00,
2013-07-04 12:39:00,85.7,75.6,30.20,NNW,346,0.0,0.0,72,0.00,,,0.01,Wunderground v.1.15,2013-07-04 16:39:00,
2013-07-04 12:45:00,85.8,76.5,30.20,West,273,0.0,1.0,74,0.00,,,0.01,Wunderground v.1.15,2013-07-04 16:45:00,
2013-07-04 12:54:00,86.5,76.0,30.20,West,270,0.0,0.0,71,0.00,,,0.01,Wunderground v.1.15,2013-07-04 16:54:00,
2013-07-04 13:00:00,86.5,75.5,30.20,NW,321,1.0,1.0,70,0.00,,,0.01,Wunderground v.1.15,2013-07-04 17:00:00,
2013-07-04 13:09:00,86.1,76.4,30.20,NW,321,0.0,0.0,73,0.00,,,0.01,Wunderground v.1.15,2013-07-04 17:09:00,
2013-07-04 13:15:00,86.4,75.5,30.19,South,190,0.0,0.0,70,0.00,,,0.01,Wunderground v.1.15,2013-07-04 17:15:00,
2013-07-04 13:24:00,86.3,74.9,30.19,South,176,1.0,1.0,69,0.00,,,0.01,Wunderground v.1.15,2013-07-04 17:24:00,
2013-07-04 13:30:00,86.0,75.9,30.19,SW,219,1.0,1.0,72,0.00,,,0.01,Wunderground v.1.15,2013-07-04 17:30:00,
2013-07-04 13:35:00,86.2,76.1,30.19,SW,220,1.0,1.0,72,0.00,,,0.01,Wunderground v.1.15,2013-07-04 17:35:00,
2013-07-04 13:46:00,86.1,76.4,30.19,NNE,33,1.0,1.0,73,0.00,,,0.01,Wunderground v.1.15,2013-07-04 17:46:00,
2013-07-04 13:55:00,86.9,76.4,30.18,ESE,107,1.0,4.0,71,0.00,,,0.01,Wunderground v.1.15,2013-07-04 17:55:00,
2013-07-04 14:01:00,87.6,75.7,30.18,SSW,198,1.0,2.0,68,0.00,,,0.01,Wunderground v.1.15,2013-07-04 18:01:00,
2013-07-04 14:10:00,86.7,74.9,30.18,WSW,252,1.0,1.0,68,0.00,,,0.01,Wunderground v.1.15,2013-07-04 18:10:00,
2013-07-04 14:16:00,86.7,75.3,30.18,South,182,1.0,1.0,69,0.00,,,0.01,Wunderground v.1.15,2013-07-04 18:16:00,
2013-07-04 14:25:00,87.7,75.8,30.18,South,190,1.0,2.0,68,0.00,,,0.01,Wunderground v.1.15,2013-07-04 18:25:00,
2013-07-04 14:31:00,87.7,75.4,30.17,South,182,1.0,2.0,67,0.00,,,0.01,Wunderground v.1.15,2013-07-04 18:31:00,
2013-07-04 14:40:00,87.4,75.5,30.17,SW,236,1.0,1.0,68,0.00,,,0.01,Wunderground v.1.15,2013-07-04 18:40:00,
2013-07-04 14:45:00,87.7,75.4,30.17,South,186,1.0,2.0,67,0.00,,,0.01,Wunderground v.1.15,2013-07-04 18:45:00,
2013-07-04 14:55:00,87.9,75.6,30.17,North,360,1.0,1.0,67,0.00,,,0.01,Wunderground v.1.15,2013-07-04 18:55:00,
2013-07-04 15:01:00,88.1,76.2,30.16,NE,35,0.0,1.0,68,0.00,,,0.01,Wunderground v.1.15,2013-07-04 19:01:00,
2013-07-04 15:10:00,87.8,75.0,30.16,SSW,211,2.0,2.0,66,0.00,,,0.01,Wunderground v.1.15,2013-07-04 19:10:00,
2013-07-04 15:16:00,87.3,75.4,30.16,West,261,2.0,2.0,68,0.00,,,0.01,Wunderground v.1.15,2013-07-04 19:16:00,
2013-07-04 15:25:00,87.4,76.0,30.16,South,189,0.0,1.0,69,0.00,,,0.01,Wunderground v.1.15,2013-07-04 19:25:00,
2013-07-04 15:31:00,87.4,75.5,30.16,ENE,67,0.0,0.0,68,0.00,,,0.01,Wunderground v.1.15,2013-07-04 19:31:00,
2013-07-04 15:40:00,87.1,75.7,30.15,WSW,237,0.0,0.0,69,0.00,,,0.01,Wunderground v.1.15,2013-07-04 19:40:00,
2013-07-04 15:46:00,87.1,75.7,30.15,WSW,237,0.0,0.0,69,0.00,,,0.01,Wunderground v.1.15,2013-07-04 19:46:00,
2013-07-04 15:55:00,86.9,75.9,30.15,SSW,193,0.0,1.0,70,0.00,,,0.01,Wunderground v.1.15,2013-07-04 19:55:00,
2013-07-04 16:01:00,87.0,76.0,30.15,West,271,1.0,1.0,70,0.00,,,0.01,Wunderground v.1.15,2013-07-04 20:01:00,
2013-07-04 16:10:00,86.9,75.9,30.15,SSW,196,1.0,1.0,70,0.00,,,0.01,Wunderground v.1.15,2013-07-04 20:10:00,
2013-07-04 16:16:00,86.5,76.0,30.15,SW,215,1.0,1.0,71,0.00,,,0.01,Wunderground v.1.15,2013-07-04 20:16:00,
2013-07-04 16:25:00,85.9,75.8,30.15,SW,216,0.0,1.0,72,0.00,,,0.01,Wunderground v.1.15,2013-07-04 20:25:00,
2013-07-04 16:30:00,85.8,76.1,30.15,West,264,0.0,0.0,73,0.00,,,0.01,Wunderground v.1.15,2013-07-04 20:30:00,
2013-07-04 16:40:00,85.7,75.6,30.14,East,79,0.0,1.0,72,0.00,,,0.01,Wunderground v.1.15,2013-07-04 20:40:00,
2013-07-04 16:45:00,85.9,76.2,30.14,WNW,285,0.0,1.0,73,0.00,,,0.01,Wunderground v.1.15,2013-07-04 20:45:00,
2013-07-04 16:55:00,86.1,75.2,30.14,WSW,239,1.0,1.0,70,0.00,,,0.01,Wunderground v.1.15,2013-07-04 20:55:00,
2013-07-04 17:00:00,86.4,75.9,30.14,West,267,1.0,1.0,71,0.00,,,0.01,Wunderground v.1.15,2013-07-04 21:00:00,
2013-07-04 17:10:00,86.4,75.0,30.14,South,180,1.0,1.0,69,0.00,,,0.01,Wunderground v.1.15,2013-07-04 21:10:00,
2013-07-04 17:15:00,86.4,75.0,30.14,SW,215,1.0,1.0,69,0.00,,,0.01,Wunderground v.1.15,2013-07-04 21:15:00,
2013-07-04 17:24:00,86.1,74.7,30.14,South,176,1.0,2.0,69,0.00,,,0.01,Wunderground v.1.15,2013-07-04 21:24:00,
2013-07-04 17:30:00,85.9,75.0,30.13,SSW,200,2.0,2.0,70,0.00,,,0.01,Wunderground v.1.15,2013-07-04 21:30:00,
2013-07-04 17:39:00,85.6,75.1,30.13,SW,216,2.0,2.0,71,0.00,,,0.01,Wunderground v.1.15,2013-07-04 21:39:00,
2013-07-04 17:45:00,85.6,75.1,30.13,South,191,1.0,2.0,71,0.00,,,0.01,Wunderground v.1.15,2013-07-04 21:45:00,
2013-07-04 17:55:00,85.6,75.5,30.13,SW,221,1.0,2.0,72,0.00,,,0.01,Wunderground v.1.15,2013-07-04 21:55:00,
2013-07-04 18:00:00,85.7,75.6,30.12,WNW,289,1.0,1.0,72,0.00,,,0.01,Wunderground v.1.15,2013-07-04 22:00:00,
2013-07-04 18:09:00,85.5,74.6,30.12,NE,38,2.0,3.0,70,0.00,,,0.01,Wunderground v.1.15,2013-07-04 22:09:00,
2013-07-04 18:15:00,85.4,74.5,30.12,SW,221,2.0,3.0,70,0.00,,,0.01,Wunderground v.1.15,2013-07-04 22:15:00,
2013-07-04 18:25:00,85.3,75.2,30.12,SW,227,1.0,1.0,72,0.00,,,0.01,Wunderground v.1.15,2013-07-04 22:25:00,
2013-07-04 18:30:00,85.3,74.4,30.12,ENE,65,1.0,1.0,70,0.00,,,0.01,Wunderground v.1.15,2013-07-04 22:30:00,
2013-07-04 18:39:00,85.2,74.7,30.13,South,190,2.0,2.0,71,0.00,,,0.01,Wunderground v.1.15,2013-07-04 22:39:00,
2013-07-04 18:45:00,85.0,75.0,30.13,East,93,1.0,2.0,72,0.00,,,0.01,Wunderground v.1.15,2013-07-04 22:45:00,
2013-07-04 18:54:00,84.9,75.3,30.13,SW,225,0.0,1.0,73,0.00,,,0.01,Wunderground v.1.15,2013-07-04 22:54:00,
2013-07-04 19:00:00,84.6,75.0,30.13,SSW,212,0.0,0.0,73,0.00,,,0.01,Wunderground v.1.15,2013-07-04 23:00:00,
2013-07-04 19:09:00,84.3,74.7,30.13,SSW,202,0.0,0.0,73,0.00,,,0.01,Wunderground v.1.15,2013-07-04 23:09:00,
2013-07-04 19:15:00,84.0,74.8,30.13,SSW,200,0.0,0.0,74,0.00,,,0.01,Wunderground v.1.15,2013-07-04 23:15:00,
2013-07-04 19:24:00,83.8,74.6,30.14,SSW,209,1.0,2.0,74,0.00,,,0.01,Wunderground v.1.15,2013-07-04 23:24:00,
2013-07-04 19:30:00,83.8,74.6,30.14,SSW,207,1.0,1.0,74,0.00,,,0.01,Wunderground v.1.15,2013-07-04 23:30:00,
2013-07-04 19:35:00,83.6,74.4,30.14,SSW,207,1.0,1.0,74,0.00,,,0.01,Wunderground v.1.15,2013-07-04 23:35:00,
2013-07-04 19:46:00,83.3,74.5,30.14,West,259,0.0,2.0,75,0.00,,,0.01,Wunderground v.1.15,2013-07-04 23:46:00,
2013-07-04 19:55:00,82.9,74.6,30.14,West,259,0.0,0.0,76,0.00,,,0.01,Wunderground v.1.15,2013-07-04 23:55:00,
2013-07-04 20:01:00,82.7,74.4,30.14,West,259,0.0,0.0,76,0.00,,,0.01,Wunderground v.1.15,2013-07-05 00:01:00,
2013-07-04 20:10:00,82.2,74.3,30.14,West,259,0.0,0.0,77,0.00,,,0.01,Wunderground v.1.15,2013-07-05 00:10:00,
2013-07-04 20:16:00,82.0,74.1,30.14,West,259,0.0,0.0,77,0.00,,,0.01,Wunderground v.1.15,2013-07-05 00:16:00,
2013-07-04 20:25:00,81.6,74.5,30.15,West,259,0.0,0.0,79,0.00,,,0.01,Wunderground v.1.15,2013-07-05 00:25:00,
2013-07-04 20:31:00,81.2,74.4,30.15,West,259,0.0,0.0,80,0.00,,,0.01,Wunderground v.1.15,2013-07-05 00:31:00,
2013-07-04 20:40:00,80.7,74.0,30.15,West,259,0.0,0.0,80,0.00,,,0.01,Wunderground v.1.15,2013-07-05 00:40:00,
2013-07-04 20:46:00,80.5,73.8,30.15,West,259,0.0,0.0,80,0.00,,,0.01,Wunderground v.1.15,2013-07-05 00:46:00,
2013-07-04 20:55:00,80.1,73.7,30.15,West,259,0.0,0.0,81,0.00,,,0.01,Wunderground v.1.15,2013-07-05 00:55:00,
2013-07-04 21:01:00,79.9,73.9,30.15,West,274,0.0,0.0,82,0.00,,,0.01,Wunderground v.1.15,2013-07-05 01:01:00,
2013-07-04 21:10:00,79.6,73.6,30.15,West,274,0.0,0.0,82,0.00,,,0.01,Wunderground v.1.15,2013-07-05 01:10:00,
2013-07-04 21:16:00,79.5,73.5,30.15,West,274,0.0,0.0,82,0.00,,,0.01,Wunderground v.1.15,2013-07-05 01:16:00,
2013-07-04 21:25:00,79.4,73.4,30.16,West,274,0.0,0.0,82,0.00,,,0.01,Wunderground v.1.15,2013-07-05 01:25:00,
2013-07-04 21:31:00,79.3,73.3,30.16,West,274,0.0,0.0,82,0.00,,,0.01,Wunderground v.1.15,2013-07-05 01:31:00,
2013-07-04 21:40:00,79.1,73.1,30.16,West,274,0.0,0.0,82,0.00,,,0.01,Wunderground v.1.15,2013-07-05 01:40:00,
2013-07-04 21:46:00,79.0,73.0,30.16,West,274,0.0,0.0,82,0.00,,,0.01,Wunderground v.1.15,2013-07-05 01:46:00,
2013-07-04 21:55:00,78.8,73.2,30.17,West,274,0.0,0.0,83,0.00,,,0.01,Wunderground v.1.15,2013-07-05 01:55:00,
2013-07-04 22:01:00,78.6,73.0,30.17,West,274,0.0,0.0,83,0.00,,,0.01,Wunderground v.1.15,2013-07-05 02:01:00,
2013-07-04 22:10:00,78.2,73.0,30.17,West,274,0.0,0.0,84,0.00,,,0.01,Wunderground v.1.15,2013-07-05 02:10:00,
2013-07-04 22:15:00,78.1,72.9,30.17,West,274,0.0,0.0,84,0.00,,,0.01,Wunderground v.1.15,2013-07-05 02:15:00,
2013-07-04 22:25:00,77.8,72.9,30.17,West,274,0.0,0.0,85,0.00,,,0.01,Wunderground v.1.15,2013-07-05 02:25:00,
2013-07-04 22:30:00,77.6,72.7,30.17,West,274,0.0,0.0,85,0.00,,,0.01,Wunderground v.1.15,2013-07-05 02:30:00,
2013-07-04 22:40:00,77.4,72.5,30.18,West,274,0.0,0.0,85,0.00,,,0.01,Wunderground v.1.15,2013-07-05 02:40:00,
2013-07-04 22:45:00,77.3,72.4,30.17,West,274,0.0,0.0,85,0.00,,,0.01,Wunderground v.1.15,2013-07-05 02:45:00,
2013-07-04 22:55:00,77.2,72.3,30.18,West,274,0.0,0.0,85,0.00,,,0.01,Wunderground v.1.15,2013-07-05 02:55:00,
2013-07-04 23:00:00,77.2,72.3,30.17,West,274,0.0,0.0,85,0.00,,,0.01,Wunderground v.1.15,2013-07-05 03:00:00,
2013-07-04 23:10:00,77.0,72.5,30.17,West,274,0.0,0.0,86,0.00,,,0.01,Wunderground v.1.15,2013-07-05 03:10:00,
2013-07-04 23:15:00,76.8,72.3,30.17,West,274,0.0,0.0,86,0.00,,,0.01,Wunderground v.1.15,2013-07-05 03:15:00,
2013-07-04 23:25:00,76.3,72.1,30.18,West,274,0.0,0.0,87,0.00,,,0.01,Wunderground v.1.15,2013-07-05 03:25:00,
2013-07-04 23:30:00,76.0,72.2,30.18,West,274,0.0,0.0,88,0.00,,,0.01,Wunderground v.1.15,2013-07-05 03:30:00,
2013-07-04 23:40:00,75.6,72.1,30.18,West,274,0.0,0.0,89,0.00,,,0.01,Wunderground v.1.15,2013-07-05 03:40:00,
2013-07-04 23:45:00,75.4,71.9,30.18,West,274,0.0,0.0,89,0.00,,,0.01,Wunderground v.1.15,2013-07-05 03:45:00,
2013-07-04 23:54:00,75.0,71.9,30.18,West,274,0.0,0.0,90,0.00,,,0.01,Wunderground v.1.15,2013-07-05 03:54:00,